createdAt,value
2018-03-11T00:00:22.327Z,113.55
2018-03-11T00:02:51.459Z,115.43
2018-03-11T00:05:20.580Z,116.03
2018-03-11T00:07:55.671Z,114.05
2018-03-11T00:10:24.809Z,112.10
2018-03-11T00:12:54.116Z,112.95
2018-03-11T00:15:23.287Z,111.40
2018-03-11T00:17:52.661Z,114.97
2018-03-11T00:20:21.931Z,112.60
2018-03-11T00:22:51.147Z,113.88
2018-03-11T00:25:20.295Z,114.03
2018-03-11T00:27:49.833Z,116.00
2018-03-11T00:30:19.141Z,110.40
2018-03-11T00:32:48.534Z,114.97
2018-03-11T00:35:17.887Z,111.53
2018-03-11T00:37:47.213Z,113.25
2018-03-11T00:40:16.543Z,109.87
2018-03-11T00:42:45.911Z,115.40
2018-03-11T00:45:15.210Z,113.40
2018-03-11T00:47:44.403Z,113.10
2018-03-11T00:50:13.810Z,112.45
2018-03-11T00:52:43.095Z,114.18
2018-03-11T00:55:12.402Z,113.95
2018-03-11T00:57:41.910Z,113.78
2018-03-11T01:00:11.212Z,114.60
2018-03-11T01:02:40.511Z,114.25
2018-03-11T01:05:09.823Z,113.37
2018-03-11T01:07:39.151Z,112.97
2018-03-11T01:10:08.451Z,111.93
2018-03-11T01:12:37.841Z,114.07
2018-03-11T01:15:07.022Z,113.20
2018-03-11T01:17:36.317Z,113.53
2018-03-11T01:20:05.722Z,111.12
2018-03-11T01:22:35.005Z,112.32
2018-03-11T01:25:04.303Z,113.47
2018-03-11T01:27:33.542Z,114.22
2018-03-11T01:30:03.230Z,112.70
2018-03-11T01:32:32.760Z,113.50
2018-03-11T01:35:02.053Z,113.68
2018-03-11T01:37:31.425Z,111.65
2018-03-11T01:40:00.911Z,112.65
2018-03-11T01:42:30.296Z,115.05
2018-03-11T01:44:59.725Z,113.82
2018-03-11T01:47:29.259Z,114.47
2018-03-11T01:49:58.518Z,115.22
2018-03-11T01:52:27.799Z,113.97
2018-03-11T01:54:57.231Z,116.68
2018-03-11T01:57:26.544Z,117.30
2018-03-11T01:59:55.923Z,113.10
2018-03-11T02:02:25.238Z,114.68
2018-03-11T02:04:54.627Z,115.35
2018-03-11T02:07:24.046Z,113.43
2018-03-11T02:09:53.369Z,115.37
2018-03-11T02:12:22.831Z,116.10
2018-03-11T02:14:52.091Z,116.03
2018-03-11T02:17:21.452Z,110.75
2018-03-11T02:19:50.756Z,114.80
2018-03-11T02:22:20.024Z,111.43
2018-03-11T02:24:49.451Z,114.45
2018-03-11T02:27:18.855Z,109.15
2018-03-11T02:29:48.137Z,111.88
2018-03-11T02:32:17.586Z,112.45
2018-03-11T02:34:46.934Z,112.82
2018-03-11T02:37:16.185Z,110.85
2018-03-11T02:39:45.530Z,112.35
2018-03-11T02:42:14.936Z,111.15
2018-03-11T02:44:44.282Z,114.68
2018-03-11T02:47:13.632Z,111.20
2018-03-11T02:49:42.891Z,112.62
2018-03-11T02:52:12.231Z,112.18
2018-03-11T02:54:41.611Z,112.45
2018-03-11T02:57:11.034Z,112.03
2018-03-11T02:59:40.350Z,112.12
2018-03-11T03:02:09.766Z,110.78
2018-03-11T03:04:39.034Z,111.05
2018-03-11T03:07:08.450Z,110.70
2018-03-11T03:09:38.030Z,111.10
2018-03-11T03:12:07.783Z,111.78
2018-03-11T03:14:37.181Z,111.03
2018-03-11T03:17:09.862Z,111.78
2018-03-11T03:19:39.258Z,109.97
2018-03-11T03:22:09.778Z,112.53
2018-03-11T03:24:39.974Z,112.00
2018-03-11T03:27:09.415Z,113.15
2018-03-11T03:29:39.020Z,113.30
2018-03-11T03:34:45.636Z,110.57
2018-03-11T03:37:15.113Z,111.37
2018-03-11T03:39:44.336Z,110.88
2018-03-11T03:42:13.483Z,111.35
2018-03-11T03:44:43.080Z,112.07
2018-03-11T03:47:12.549Z,110.32
2018-03-11T03:49:42.085Z,110.72
2018-03-11T03:52:11.486Z,110.43
2018-03-11T03:54:41.134Z,111.97
2018-03-11T03:57:10.494Z,111.12
2018-03-11T03:59:39.924Z,111.30
2018-03-11T04:02:09.402Z,113.62
2018-03-11T04:04:38.693Z,114.28
2018-03-11T04:07:08.126Z,112.25
2018-03-11T04:09:37.297Z,111.82
2018-03-11T04:12:06.710Z,111.65
2018-03-11T04:14:36.000Z,110.97
2018-03-11T04:17:06.261Z,111.18
2018-03-11T04:19:35.825Z,110.70
2018-03-11T04:22:05.263Z,110.28
2018-03-11T04:24:34.737Z,110.97
2018-03-11T04:27:04.339Z,110.63
2018-03-11T04:29:33.739Z,112.95
2018-03-11T04:32:03.275Z,111.55
2018-03-11T04:34:32.733Z,111.35
2018-03-11T04:37:02.263Z,111.80
2018-03-11T04:39:31.588Z,111.47
2018-03-11T04:42:00.951Z,112.20
2018-03-11T04:44:30.396Z,111.12
2018-03-11T04:46:59.795Z,111.75
2018-03-11T04:49:29.086Z,111.47
2018-03-11T04:51:58.443Z,111.03
2018-03-11T04:54:27.754Z,110.70
2018-03-11T04:56:57.402Z,111.22
2018-03-11T04:59:26.687Z,110.40
2018-03-11T05:01:56.117Z,111.62
2018-03-11T05:04:25.464Z,112.28
2018-03-11T05:06:55.010Z,111.80
2018-03-11T05:09:24.352Z,110.90
2018-03-11T05:11:53.519Z,109.55
2018-03-11T05:14:22.740Z,108.78
2018-03-11T05:16:52.162Z,110.97
2018-03-11T05:19:21.565Z,109.93
2018-03-11T05:21:51.071Z,112.45
2018-03-11T05:24:20.511Z,115.10
2018-03-11T05:26:55.150Z,116.45
2018-03-11T05:29:24.647Z,111.30
2018-03-11T05:31:54.100Z,111.10
2018-03-11T05:34:23.400Z,110.53
2018-03-11T05:36:52.805Z,112.12
2018-03-11T05:39:22.102Z,111.68
2018-03-11T05:41:51.322Z,111.28
2018-03-11T05:44:20.803Z,108.87
2018-03-11T05:46:50.100Z,109.20
2018-03-11T05:49:19.436Z,110.60
2018-03-11T05:52:15.422Z,111.45
2018-03-11T05:54:44.830Z,112.78
2018-03-11T05:57:14.384Z,109.47
2018-03-11T05:59:43.682Z,111.65
2018-03-11T06:02:12.870Z,111.53
2018-03-11T06:04:42.119Z,111.43
2018-03-11T06:07:11.526Z,112.97
2018-03-11T06:09:40.931Z,115.27
2018-03-11T06:12:10.240Z,112.43
2018-03-11T06:14:39.453Z,113.07
2018-03-11T06:17:08.671Z,114.28
2018-03-11T06:19:38.026Z,115.10
2018-03-11T06:22:07.146Z,114.30
2018-03-11T06:24:36.468Z,114.90
2018-03-11T06:27:05.718Z,115.27
2018-03-11T06:29:34.912Z,116.33
2018-03-11T06:32:04.314Z,119.70
2018-03-11T06:34:33.648Z,120.27
2018-03-11T06:37:03.071Z,122.10
2018-03-11T06:39:32.419Z,121.23
2018-03-11T06:42:01.711Z,122.70
2018-03-11T06:44:31.014Z,122.97
2018-03-11T06:47:00.281Z,124.13
2018-03-11T06:49:29.508Z,120.93
2018-03-11T06:51:58.956Z,119.17
2018-03-11T06:54:28.166Z,118.60
2018-03-11T06:56:57.301Z,118.87
2018-03-11T06:59:27.077Z,117.57
2018-03-11T07:01:56.208Z,118.13
2018-03-11T07:04:25.342Z,118.13
2018-03-11T07:06:54.705Z,118.27
2018-03-11T07:09:23.850Z,118.23
2018-03-11T07:11:53.050Z,120.03
2018-03-11T07:14:22.269Z,120.13
2018-03-11T07:16:51.652Z,121.87
2018-03-11T07:19:20.875Z,117.53
2018-03-11T07:21:50.092Z,120.77
2018-03-11T07:24:19.272Z,122.83
2018-03-11T07:26:48.475Z,123.83
2018-03-11T07:29:17.638Z,121.43
2018-03-11T07:31:46.761Z,121.90
2018-03-11T07:34:15.907Z,122.33
2018-03-11T07:36:45.039Z,129.13
2018-03-11T07:39:14.377Z,135.37
2018-03-11T07:41:43.665Z,129.40
2018-03-11T07:44:12.833Z,130.83
2018-03-11T07:46:42.260Z,135.17
2018-03-11T07:49:11.486Z,122.70
2018-03-11T07:51:40.862Z,124.10
2018-03-11T07:54:10.094Z,118.07
2018-03-11T07:56:39.356Z,120.10
2018-03-11T07:59:08.617Z,120.43
2018-03-11T08:01:37.956Z,122.57
2018-03-11T08:04:07.168Z,122.67
2018-03-11T08:06:36.307Z,134.27
2018-03-11T08:09:05.489Z,126.10
2018-03-11T08:11:34.601Z,128.47
2018-03-11T08:14:03.814Z,132.73
2018-03-11T08:16:32.958Z,124.73
2018-03-11T08:19:02.117Z,120.13
2018-03-11T08:21:31.258Z,122.27
2018-03-11T08:24:00.460Z,126.17
2018-03-11T08:26:29.680Z,126.83
2018-03-11T08:28:58.802Z,133.87
2018-03-11T08:31:27.934Z,139.40
2018-03-11T08:33:57.042Z,138.03
2018-03-11T08:36:26.197Z,138.60
2018-03-11T08:38:55.323Z,130.63
2018-03-11T08:41:24.419Z,122.67
2018-03-11T08:43:53.518Z,123.73
2018-03-11T08:46:22.642Z,126.20
2018-03-11T08:48:51.840Z,129.90
2018-03-11T08:51:20.969Z,136.03
2018-03-11T08:53:50.125Z,140.03
2018-03-11T08:56:19.243Z,133.27
2018-03-11T08:58:48.374Z,134.23
2018-03-11T09:01:17.502Z,136.07
2018-03-11T09:03:46.818Z,136.33
2018-03-11T09:06:15.938Z,135.17
2018-03-11T09:08:45.029Z,138.03
2018-03-11T09:11:14.144Z,137.97
2018-03-11T09:13:43.299Z,135.37
2018-03-11T09:16:12.387Z,138.33
2018-03-11T09:18:41.527Z,137.73
2018-03-11T09:21:10.631Z,139.83
2018-03-11T09:23:39.735Z,141.60
2018-03-11T09:26:08.911Z,139.27
2018-03-11T09:28:38.043Z,135.70
2018-03-11T09:31:07.149Z,133.67
2018-03-11T09:33:43.180Z,136.37
2018-03-11T09:36:12.322Z,131.60
2018-03-11T09:38:41.424Z,132.57
2018-03-11T09:41:10.554Z,125.77
2018-03-11T09:43:39.673Z,125.53
2018-03-11T09:46:08.853Z,123.53
2018-03-11T09:48:38.010Z,123.87
2018-03-11T09:51:07.126Z,123.73
2018-03-11T09:53:36.230Z,121.87
2018-03-11T09:56:05.368Z,122.50
2018-03-11T09:58:34.572Z,120.90
2018-03-11T10:01:03.718Z,120.73
2018-03-11T10:03:32.899Z,123.27
2018-03-11T10:06:02.399Z,122.47
2018-03-11T10:08:31.674Z,121.67
2018-03-11T10:11:01.204Z,122.30
2018-03-11T10:13:30.570Z,124.40
2018-03-11T10:15:59.845Z,124.93
2018-03-11T10:18:29.144Z,122.30
2018-03-11T10:20:58.340Z,122.43
2018-03-11T10:23:27.690Z,120.87
2018-03-11T10:25:57.105Z,120.43
2018-03-11T10:28:26.443Z,120.47
2018-03-11T10:30:55.905Z,121.67
2018-03-11T10:33:25.307Z,122.57
2018-03-11T10:35:54.560Z,128.23
2018-03-11T10:38:23.960Z,133.73
2018-03-11T10:40:53.509Z,124.70
2018-03-11T10:43:22.800Z,123.73
2018-03-11T10:45:51.961Z,123.13
2018-03-11T10:48:21.311Z,122.40
2018-03-11T10:50:50.665Z,124.33
2018-03-11T10:53:20.030Z,120.77
2018-03-11T10:55:49.381Z,123.50
2018-03-11T10:58:18.599Z,122.17
2018-03-11T11:00:52.797Z,125.33
2018-03-11T11:03:27.709Z,123.30
2018-03-11T11:05:56.986Z,125.37
2018-03-11T11:08:26.244Z,120.83
2018-03-11T11:10:55.652Z,123.50
2018-03-11T11:13:25.256Z,123.67
2018-03-11T11:15:54.446Z,125.77
2018-03-11T11:18:23.716Z,123.53
2018-03-11T11:20:53.010Z,122.57
2018-03-11T11:23:22.349Z,125.67
2018-03-11T11:25:51.763Z,128.20
2018-03-11T11:28:21.272Z,135.13
2018-03-11T11:30:50.554Z,135.90
2018-03-11T11:33:19.658Z,122.23
2018-03-11T11:35:48.985Z,128.63
2018-03-11T11:38:18.106Z,125.47
2018-03-11T11:40:47.303Z,127.43
2018-03-11T11:43:16.507Z,127.37
2018-03-11T11:45:45.679Z,128.90
2018-03-11T11:48:14.811Z,127.47
2018-03-11T11:50:43.961Z,126.70
2018-03-11T11:53:13.132Z,129.50
2018-03-11T11:55:42.405Z,128.27
2018-03-11T11:58:11.702Z,123.73
2018-03-11T12:00:40.856Z,125.23
2018-03-11T12:03:10.160Z,125.47
2018-03-11T12:05:39.345Z,129.03
2018-03-11T12:08:08.528Z,126.37
2018-03-11T12:10:38.107Z,125.13
2018-03-11T12:13:07.411Z,121.90
2018-03-11T12:15:36.673Z,125.17
2018-03-11T12:18:05.947Z,122.03
2018-03-11T12:20:35.288Z,123.10
2018-03-11T12:23:04.710Z,122.27
2018-03-11T12:25:33.994Z,124.37
2018-03-11T12:28:03.189Z,124.30
2018-03-11T12:30:32.593Z,123.30
2018-03-11T12:33:01.818Z,125.97
2018-03-11T12:35:30.936Z,123.20
2018-03-11T12:38:00.078Z,121.50
2018-03-11T12:40:29.205Z,122.83
2018-03-11T12:42:58.373Z,124.53
2018-03-11T12:45:27.672Z,122.77
2018-03-11T12:47:56.916Z,123.73
2018-03-11T12:50:26.045Z,123.30
2018-03-11T12:52:55.631Z,124.33
2018-03-11T12:55:24.984Z,124.73
2018-03-11T12:57:54.266Z,126.50
2018-03-11T13:00:23.701Z,123.50
2018-03-11T13:02:52.826Z,122.60
2018-03-11T13:05:21.936Z,122.13
2018-03-11T13:07:51.160Z,123.73
2018-03-11T13:10:20.393Z,122.27
2018-03-11T13:12:49.618Z,123.63
2018-03-11T13:15:18.779Z,121.37
2018-03-11T13:17:48.013Z,121.17
2018-03-11T13:20:23.207Z,120.73
2018-03-11T13:22:52.334Z,121.53
2018-03-11T13:25:21.687Z,120.53
2018-03-11T13:27:56.939Z,122.40
2018-03-11T13:30:26.209Z,120.30
2018-03-11T13:33:01.554Z,122.40
2018-03-11T13:38:12.440Z,119.13
2018-03-11T13:40:44.649Z,121.13
2018-03-11T13:43:13.904Z,119.40
2018-03-11T13:45:49.163Z,119.83
2018-03-11T13:48:18.716Z,122.57
2018-03-11T13:50:48.060Z,122.87
2018-03-11T13:53:23.496Z,123.23
2018-03-11T13:55:52.742Z,122.77
2018-03-11T13:58:27.809Z,120.43
2018-03-11T14:00:57.297Z,119.53
2018-03-11T14:03:26.748Z,120.83
2018-03-11T14:05:55.970Z,122.53
2018-03-11T14:08:25.244Z,118.67
2018-03-11T14:10:54.457Z,124.80
2018-03-11T14:13:23.897Z,120.33
2018-03-11T14:15:53.233Z,120.47
2018-03-11T14:18:22.430Z,121.57
2018-03-11T14:20:51.686Z,118.67
2018-03-11T14:23:20.931Z,117.83
2018-03-11T14:25:50.141Z,120.57
2018-03-11T14:28:19.423Z,118.77
2018-03-11T14:30:48.594Z,120.13
2018-03-11T14:33:17.832Z,120.20
2018-03-11T14:35:47.133Z,120.57
2018-03-11T14:38:16.311Z,118.40
2018-03-11T14:40:45.469Z,120.70
2018-03-11T14:43:14.731Z,120.07
2018-03-11T14:45:44.012Z,120.37
2018-03-11T14:48:13.733Z,122.50
2018-03-11T14:50:43.025Z,122.20
2018-03-11T14:53:12.226Z,120.20
2018-03-11T14:55:41.486Z,120.40
2018-03-11T14:58:10.731Z,121.07
2018-03-11T15:00:39.917Z,121.27
2018-03-11T15:03:09.134Z,119.93
2018-03-11T15:05:38.380Z,118.13
2018-03-11T15:08:07.810Z,120.70
2018-03-11T15:10:37.254Z,120.07
2018-03-11T15:13:06.656Z,120.90
2018-03-11T15:15:35.912Z,119.50
2018-03-11T15:18:05.106Z,120.37
2018-03-11T15:20:34.304Z,121.10
2018-03-11T15:23:03.452Z,123.30
2018-03-11T15:25:32.803Z,120.93
2018-03-11T15:28:02.464Z,120.43
2018-03-11T15:30:31.686Z,121.67
2018-03-11T15:33:01.168Z,120.67
2018-03-11T15:35:30.628Z,122.37
2018-03-11T15:38:00.083Z,120.67
2018-03-11T15:40:29.253Z,119.97
2018-03-11T15:42:58.411Z,117.80
2018-03-11T15:45:27.535Z,121.73
2018-03-11T15:47:56.981Z,123.03
2018-03-11T15:50:26.152Z,119.27
2018-03-11T15:52:55.485Z,117.50
2018-03-11T15:55:24.680Z,119.93
2018-03-11T15:57:54.033Z,120.10
2018-03-11T16:00:23.154Z,118.73
2018-03-11T16:02:52.378Z,120.00
2018-03-11T16:05:21.575Z,117.70
2018-03-11T16:07:50.973Z,119.53
2018-03-11T16:10:20.283Z,118.00
2018-03-11T16:12:49.778Z,123.32
2018-03-11T16:15:19.897Z,152.77
2018-03-11T16:17:50.550Z,116.40
2018-03-11T16:20:19.983Z,118.40
2018-03-11T16:22:49.164Z,117.83
2018-03-11T16:25:18.640Z,118.50
2018-03-11T16:27:47.863Z,118.30
2018-03-11T16:30:17.001Z,119.83
2018-03-11T16:32:46.158Z,139.20
2018-03-11T16:35:15.351Z,118.47
2018-03-11T16:37:44.539Z,119.40
2018-03-11T16:40:13.714Z,117.13
2018-03-11T16:42:42.883Z,115.93
2018-03-11T16:45:12.087Z,117.50
2018-03-11T16:47:41.225Z,117.93
2018-03-11T16:50:10.371Z,119.57
2018-03-11T16:52:39.504Z,116.70
2018-03-11T16:55:08.662Z,118.57
2018-03-11T16:57:37.850Z,120.13
2018-03-11T17:00:07.019Z,118.50
2018-03-11T17:02:36.144Z,119.40
2018-03-11T17:05:05.323Z,147.40
2018-03-11T17:07:34.581Z,115.77
2018-03-11T17:10:03.706Z,118.77
2018-03-11T17:12:32.851Z,120.33
2018-03-11T17:15:02.019Z,121.20
2018-03-11T17:17:31.150Z,119.17
2018-03-11T17:20:00.405Z,118.60
2018-03-11T17:22:29.554Z,118.60
2018-03-11T17:24:58.700Z,121.27
2018-03-11T17:27:27.852Z,120.50
2018-03-11T17:29:56.990Z,119.00
2018-03-11T17:32:26.142Z,119.87
2018-03-11T17:34:55.293Z,120.30
2018-03-11T17:37:24.425Z,117.73
2018-03-11T17:39:53.574Z,120.07
2018-03-11T17:42:22.734Z,120.17
2018-03-11T17:44:51.920Z,121.73
2018-03-11T17:47:21.906Z,120.33
2018-03-11T17:49:51.097Z,121.37
2018-03-11T17:52:20.202Z,121.93
2018-03-11T17:54:49.348Z,122.20
2018-03-11T17:57:18.495Z,120.70
2018-03-11T17:59:47.643Z,123.70
2018-03-11T18:02:16.800Z,123.63
2018-03-11T18:04:45.990Z,122.00
2018-03-11T18:07:15.105Z,121.47
2018-03-11T18:09:44.246Z,122.43
2018-03-11T18:12:13.396Z,119.00
2018-03-11T18:14:42.539Z,122.10
2018-03-11T18:17:11.689Z,119.47
2018-03-11T18:19:40.810Z,122.73
2018-03-11T18:22:09.930Z,119.43
2018-03-11T18:24:39.033Z,121.60
2018-03-11T18:27:08.192Z,121.87
2018-03-11T18:29:37.294Z,119.43
2018-03-11T18:32:06.464Z,119.77
2018-03-11T18:34:35.586Z,119.87
2018-03-11T18:37:04.686Z,120.13
2018-03-11T18:39:33.834Z,123.33
2018-03-11T18:42:03.008Z,121.23
2018-03-11T18:44:32.191Z,119.80
2018-03-11T18:47:01.314Z,120.43
2018-03-11T18:49:30.421Z,120.80
2018-03-11T18:51:59.658Z,121.27
2018-03-11T18:54:28.807Z,119.93
2018-03-11T18:56:57.957Z,121.57
2018-03-11T18:59:27.053Z,119.80
2018-03-11T19:01:56.186Z,121.70
2018-03-11T19:04:25.321Z,121.80
2018-03-11T19:06:54.544Z,123.93
2018-03-11T19:09:23.659Z,119.17
2018-03-11T19:11:52.753Z,122.77
2018-03-11T19:14:21.882Z,123.53
2018-03-11T19:16:51.006Z,121.70
2018-03-11T19:19:20.170Z,121.50
2018-03-11T19:21:49.317Z,123.17
2018-03-11T19:24:18.448Z,119.93
2018-03-11T19:26:47.546Z,123.40
2018-03-11T19:29:17.520Z,122.00
2018-03-11T19:31:46.657Z,122.13
2018-03-11T19:34:15.871Z,120.53
2018-03-11T19:36:45.130Z,122.23
2018-03-11T19:39:14.259Z,120.63
2018-03-11T19:41:43.403Z,121.07
2018-03-11T19:44:12.530Z,120.77
2018-03-11T19:46:41.642Z,122.37
2018-03-11T19:49:10.914Z,120.77
2018-03-11T19:51:40.011Z,121.33
2018-03-11T19:54:09.105Z,122.13
2018-03-11T19:56:38.234Z,119.93
2018-03-11T19:59:07.350Z,120.00
2018-03-11T20:01:36.549Z,120.50
2018-03-11T20:04:05.682Z,119.33
2018-03-11T20:06:34.816Z,117.60
2018-03-11T20:09:04.041Z,121.13
2018-03-11T20:11:33.281Z,120.77
2018-03-11T20:14:02.584Z,121.07
2018-03-11T20:16:31.775Z,121.57
2018-03-11T20:19:00.959Z,119.63
2018-03-11T20:21:30.224Z,121.70
2018-03-11T20:23:59.600Z,121.67
2018-03-11T20:26:28.886Z,121.60
2018-03-11T20:28:58.117Z,119.23
2018-03-11T20:31:27.878Z,119.67
2018-03-11T20:33:57.130Z,121.93
2018-03-11T20:36:26.319Z,120.43
2018-03-11T20:38:55.512Z,121.43
2018-03-11T20:41:24.742Z,120.67
2018-03-11T20:43:53.889Z,121.07
2018-03-11T20:46:23.140Z,121.77
2018-03-11T20:48:52.294Z,121.87
2018-03-11T20:51:21.557Z,121.07
2018-03-11T20:53:50.778Z,122.43
2018-03-11T20:56:20.054Z,121.03
2018-03-11T20:58:49.688Z,123.03
2018-03-11T21:01:18.926Z,123.60
2018-03-11T21:03:48.738Z,119.13
2018-03-11T21:06:17.906Z,120.27
2018-03-11T21:08:47.200Z,120.17
2018-03-11T21:11:16.506Z,120.93
2018-03-11T21:13:45.846Z,121.23
2018-03-11T21:16:15.064Z,120.53
2018-03-11T21:18:44.227Z,121.17
2018-03-11T21:21:13.994Z,121.03
2018-03-11T21:23:43.130Z,121.90
2018-03-11T21:26:12.441Z,120.77
2018-03-11T21:28:41.770Z,122.43
2018-03-11T21:31:11.284Z,123.63
2018-03-11T21:33:40.497Z,123.87
2018-03-11T21:36:09.865Z,121.43
2018-03-11T21:38:39.708Z,122.10
2018-03-11T21:41:09.334Z,121.90
2018-03-11T21:43:38.628Z,120.53
2018-03-11T21:46:07.826Z,121.97
2018-03-11T21:48:37.210Z,121.20
2018-03-11T21:51:06.526Z,122.87
2018-03-11T21:53:37.126Z,119.90
2018-03-11T21:56:06.329Z,122.00
2018-03-11T21:58:35.834Z,125.47
2018-03-11T22:01:05.137Z,122.30
2018-03-11T22:03:34.367Z,121.30
2018-03-11T22:06:03.825Z,123.47
2018-03-11T22:08:33.256Z,122.83
2018-03-11T22:11:02.478Z,122.33
2018-03-11T22:13:31.869Z,122.30
2018-03-11T22:16:01.400Z,122.67
2018-03-11T22:18:30.613Z,121.37
2018-03-11T22:21:00.211Z,119.77
2018-03-11T22:23:29.706Z,121.40
2018-03-11T22:25:59.154Z,122.23
2018-03-11T22:28:28.573Z,121.33
2018-03-11T22:30:57.809Z,121.67
2018-03-11T22:36:02.438Z,121.57
2018-03-11T22:38:31.579Z,120.60
2018-03-11T22:41:00.725Z,119.70
2018-03-11T22:43:29.873Z,120.23
2018-03-11T22:45:59.145Z,119.83
2018-03-11T22:48:28.286Z,121.43
2018-03-11T22:50:57.446Z,122.03
2018-03-11T22:53:26.588Z,119.97
2018-03-11T22:55:55.690Z,121.43
2018-03-11T22:58:24.833Z,118.73
2018-03-11T23:00:53.969Z,119.93
2018-03-11T23:03:23.263Z,120.70
2018-03-11T23:05:52.421Z,121.63
2018-03-11T23:08:21.721Z,120.93
2018-03-11T23:10:50.898Z,123.73
2018-03-11T23:13:20.183Z,123.93
2018-03-11T23:15:49.399Z,122.83
2018-03-11T23:18:18.569Z,122.80
2018-03-11T23:20:47.686Z,121.40
2018-03-11T23:23:16.817Z,120.40
2018-03-11T23:25:46.160Z,120.70
2018-03-11T23:28:15.322Z,122.03
2018-03-11T23:30:44.506Z,118.73
2018-03-11T23:33:13.658Z,122.17
2018-03-11T23:35:42.916Z,121.10
2018-03-11T23:38:12.107Z,124.03
2018-03-11T23:40:41.309Z,123.17
2018-03-11T23:43:10.575Z,121.10
2018-03-11T23:45:39.806Z,122.07
2018-03-11T23:48:09.001Z,120.83
2018-03-11T23:50:38.382Z,121.40
2018-03-11T23:53:07.497Z,120.33
2018-03-11T23:55:36.728Z,120.43
2018-03-11T23:58:06.015Z,121.43
